Argonne, Wisconsin
Current Conditions -  °F | °C
As of 11:35 AM on Thursday 30 Oct 2014 (Local Time) from KEGV Reporting Station
Overcast Overcast  
Wind Chill: -1°   Ceiling: 1600
Heat Index:   Visibility: 10mi
Dew Point: -1°   Wind: 9mph
Humidity: 77%   Direction: 300°WNW
Pressure: 30.03"   Gusts: NA
Location:  45.66°N, 88.88°W
Report Text: KEGV 301635Z AUTO 30008KT 10SM OVC016 03/00 A3003 RMK AO2 T00311005
Loading
Personal Weather Stations






























Interactive Weather Map
Tropical Storm Tracking
New forecast layout! Learn more

10-Day Weather Forecast

Advertisements
Track Severe Weather on mobile